sensor_id;sensor_type;location;lat;lon;timestamp;pressure;altitude;pressure_sealevel;temperature;humidity
12203;BME280;6164;42.178;24.622;2023-03-14T00:01:49;100050.91;;;1.93;80.66
12203;BME280;6164;42.178;24.622;2023-03-14T00:04:15;100051.72;;;1.93;80.30
12203;BME280;6164;42.178;24.622;2023-03-14T00:06:42;100054.13;;;1.96;80.68
12203;BME280;6164;42.178;24.622;2023-03-14T00:09:09;100053.09;;;1.99;81.20
12203;BME280;6164;42.178;24.622;2023-03-14T00:11:38;100050.19;;;2.03;81.43
12203;BME280;6164;42.178;24.622;2023-03-14T00:14:06;100049.16;;;2.06;81.22
12203;BME280;6164;42.178;24.622;2023-03-14T00:16:33;100046.22;;;2.10;81.74
12203;BME280;6164;42.178;24.622;2023-03-14T00:18:59;100050.69;;;2.08;82.02
12203;BME280;6164;42.178;24.622;2023-03-14T00:21:26;100053.41;;;2.07;82.69
12203;BME280;6164;42.178;24.622;2023-03-14T00:23:52;100050.06;;;2.05;83.21
12203;BME280;6164;42.178;24.622;2023-03-14T00:26:21;100057.16;;;2.03;84.71
12203;BME280;6164;42.178;24.622;2023-03-14T00:28:50;100056.53;;;1.99;85.76
12203;BME280;6164;42.178;24.622;2023-03-14T00:31:17;100046.94;;;2.00;86.15
12203;BME280;6164;42.178;24.622;2023-03-14T00:33:44;100048.53;;;2.02;86.62
12203;BME280;6164;42.178;24.622;2023-03-14T00:36:12;100043.94;;;2.06;86.88
12203;BME280;6164;42.178;24.622;2023-03-14T00:38:39;100043.84;;;2.07;86.64
12203;BME280;6164;42.178;24.622;2023-03-14T00:41:06;100048.00;;;2.10;87.16
12203;BME280;6164;42.178;24.622;2023-03-14T00:43:35;100047.88;;;2.11;86.23
12203;BME280;6164;42.178;24.622;2023-03-14T00:46:01;100050.81;;;2.07;86.39
12203;BME280;6164;42.178;24.622;2023-03-14T00:48:28;100045.19;;;2.13;86.74
12203;BME280;6164;42.178;24.622;2023-03-14T00:50:55;100043.50;;;2.12;86.98
12203;BME280;6164;42.178;24.622;2023-03-14T00:53:22;100038.31;;;2.12;87.43
12203;BME280;6164;42.178;24.622;2023-03-14T00:55:48;100042.47;;;2.14;87.87
12203;BME280;6164;42.178;24.622;2023-03-14T00:58:15;100039.69;;;2.17;87.13
12203;BME280;6164;42.178;24.622;2023-03-14T01:00:44;100024.84;;;2.18;87.72
12203;BME280;6164;42.178;24.622;2023-03-14T01:03:12;100030.06;;;2.18;87.02
12203;BME280;6164;42.178;24.622;2023-03-14T01:05:39;100029.03;;;2.20;87.69
12203;BME280;6164;42.178;24.622;2023-03-14T01:08:06;100023.72;;;2.22;87.92
12203;BME280;6164;42.178;24.622;2023-03-14T01:10:33;100015.91;;;2.22;88.12
12203;BME280;6164;42.178;24.622;2023-03-14T01:12:59;100009.53;;;2.26;87.33
12203;BME280;6164;42.178;24.622;2023-03-14T01:15:26;100010.38;;;2.26;88.05
12203;BME280;6164;42.178;24.622;2023-03-14T01:17:54;100013.81;;;2.27;88.01
12203;BME280;6164;42.178;24.622;2023-03-14T01:20:20;100015.69;;;2.25;87.95
12203;BME280;6164;42.178;24.622;2023-03-14T01:22:46;100019.66;;;2.18;88.01
12203;BME280;6164;42.178;24.622;2023-03-14T01:25:14;100019.03;;;2.14;88.08
12203;BME280;6164;42.178;24.622;2023-03-14T01:27:41;100020.06;;;2.12;88.35
12203;BME280;6164;42.178;24.622;2023-03-14T01:30:08;100011.63;;;2.08;87.96
12203;BME280;6164;42.178;24.622;2023-03-14T01:32:34;100008.41;;;2.05;87.99
12203;BME280;6164;42.178;24.622;2023-03-14T01:35:02;100009.56;;;2.01;88.11
12203;BME280;6164;42.178;24.622;2023-03-14T01:37:29;100011.66;;;1.96;88.71
12203;BME280;6164;42.178;24.622;2023-03-14T01:39:56;100012.38;;;1.85;88.92
12203;BME280;6164;42.178;24.622;2023-03-14T01:42:22;100013.00;;;1.89;89.32
12203;BME280;6164;42.178;24.622;2023-03-14T01:44:50;100009.66;;;1.87;90.60
12203;BME280;6164;42.178;24.622;2023-03-14T01:47:17;100004.13;;;1.91;90.53
12203;BME280;6164;42.178;24.622;2023-03-14T01:49:43;100004.97;;;1.92;90.74
12203;BME280;6164;42.178;24.622;2023-03-14T01:52:15;100000.59;;;1.92;90.83
12203;BME280;6164;42.178;24.622;2023-03-14T01:54:43;100000.50;;;1.94;91.01
12203;BME280;6164;42.178;24.622;2023-03-14T01:57:11;100003.31;;;1.91;90.50
12203;BME280;6164;42.178;24.622;2023-03-14T01:59:40;100000.72;;;1.91;90.79
12203;BME280;6164;42.178;24.622;2023-03-14T02:02:09;100007.06;;;1.87;91.89
12203;BME280;6164;42.178;24.622;2023-03-14T02:04:38;100004.34;;;1.88;92.34
12203;BME280;6164;42.178;24.622;2023-03-14T02:07:05;100006.84;;;1.90;91.74
12203;BME280;6164;42.178;24.622;2023-03-14T02:09:35;99999.25;;;1.87;91.95
12203;BME280;6164;42.178;24.622;2023-03-14T02:12:02;99995.09;;;1.84;92.37
12203;BME280;6164;42.178;24.622;2023-03-14T02:14:30;99991.88;;;1.81;92.13
12203;BME280;6164;42.178;24.622;2023-03-14T02:16:57;99990.16;;;1.80;92.60
12203;BME280;6164;42.178;24.622;2023-03-14T02:19:26;99986.03;;;1.77;92.61
12203;BME280;6164;42.178;24.622;2023-03-14T02:21:57;99985.28;;;1.75;93.18
12203;BME280;6164;42.178;24.622;2023-03-14T02:24:27;99984.75;;;1.70;92.63
12203;BME280;6164;42.178;24.622;2023-03-14T02:27:08;99985.69;;;1.57;92.98
12203;BME280;6164;42.178;24.622;2023-03-14T02:29:36;99983.38;;;1.40;92.33
12203;BME280;6164;42.178;24.622;2023-03-14T02:32:05;99983.44;;;1.25;92.35
12203;BME280;6164;42.178;24.622;2023-03-14T02:34:32;99977.66;;;1.34;92.42
12203;BME280;6164;42.178;24.622;2023-03-14T02:36:59;99978.97;;;1.27;92.20
12203;BME280;6164;42.178;24.622;2023-03-14T02:39:27;99987.63;;;1.01;92.90
12203;BME280;6164;42.178;24.622;2023-03-14T02:41:55;99981.97;;;0.82;93.99
12203;BME280;6164;42.178;24.622;2023-03-14T02:44:23;99986.63;;;0.77;95.07
12203;BME280;6164;42.178;24.622;2023-03-14T02:46:49;99992.13;;;0.59;96.02
12203;BME280;6164;42.178;24.622;2023-03-14T02:49:16;99987.44;;;0.37;97.40
12203;BME280;6164;42.178;24.622;2023-03-14T02:51:43;100002.75;;;0.28;98.25
12203;BME280;6164;42.178;24.622;2023-03-14T02:54:10;99995.63;;;0.17;98.63
12203;BME280;6164;42.178;24.622;2023-03-14T02:56:37;99997.09;;;0.07;98.51
12203;BME280;6164;42.178;24.622;2023-03-14T02:59:04;99988.84;;;0.00;99.11
12203;BME280;6164;42.178;24.622;2023-03-14T03:01:31;100010.75;;;0.25;98.69
12203;BME280;6164;42.178;24.622;2023-03-14T03:03:59;100005.63;;;0.23;98.32
12203;BME280;6164;42.178;24.622;2023-03-14T03:06:25;100003.22;;;0.20;99.47
12203;BME280;6164;42.178;24.622;2023-03-14T03:08:52;99999.13;;;0.30;99.11
12203;BME280;6164;42.178;24.622;2023-03-14T03:11:18;100001.97;;;0.40;99.59
12203;BME280;6164;42.178;24.622;2023-03-14T03:13:45;100008.66;;;0.44;98.66
12203;BME280;6164;42.178;24.622;2023-03-14T03:16:11;100012.75;;;0.48;98.61
12203;BME280;6164;42.178;24.622;2023-03-14T03:18:40;100009.03;;;0.52;98.12
12203;BME280;6164;42.178;24.622;2023-03-14T03:21:06;99989.44;;;0.60;98.11
12203;BME280;6164;42.178;24.622;2023-03-14T03:23:34;99990.63;;;0.69;97.72
12203;BME280;6164;42.178;24.622;2023-03-14T03:26:01;99995.44;;;0.75;96.99
12203;BME280;6164;42.178;24.622;2023-03-14T03:28:28;99982.97;;;0.80;97.23
12203;BME280;6164;42.178;24.622;2023-03-14T03:30:54;99986.22;;;0.83;97.24
12203;BME280;6164;42.178;24.622;2023-03-14T03:33:21;99986.03;;;0.86;96.71
12203;BME280;6164;42.178;24.622;2023-03-14T03:35:49;99985.81;;;0.89;95.90
12203;BME280;6164;42.178;24.622;2023-03-14T03:38:16;99986.47;;;0.93;95.33
12203;BME280;6164;42.178;24.622;2023-03-14T03:40:45;99986.25;;;0.96;95.64
12203;BME280;6164;42.178;24.622;2023-03-14T03:43:11;99982.41;;;0.89;94.58
12203;BME280;6164;42.178;24.622;2023-03-14T03:45:38;99982.44;;;0.75;94.44
12203;BME280;6164;42.178;24.622;2023-03-14T03:48:05;99978.50;;;0.55;95.49
12203;BME280;6164;42.178;24.622;2023-03-14T03:50:32;99980.00;;;0.45;96.44
12203;BME280;6164;42.178;24.622;2023-03-14T03:53:02;99982.31;;;0.50;97.83
12203;BME280;6164;42.178;24.622;2023-03-14T03:55:29;99981.28;;;0.52;98.99
12203;BME280;6164;42.178;24.622;2023-03-14T03:57:55;99982.75;;;0.56;98.76
12203;BME280;6164;42.178;24.622;2023-03-14T04:00:22;99979.91;;;0.61;99.01
12203;BME280;6164;42.178;24.622;2023-03-14T04:02:48;99972.41;;;0.42;99.77
12203;BME280;6164;42.178;24.622;2023-03-14T04:05:15;99970.00;;;0.39;100.00
12203;BME280;6164;42.178;24.622;2023-03-14T04:07:41;99977.25;;;0.34;100.00
12203;BME280;6164;42.178;24.622;2023-03-14T04:10:10;99980.59;;;0.36;100.00
12203;BME280;6164;42.178;24.622;2023-03-14T04:12:36;99976.78;;;0.28;100.00
12203;BME280;6164;42.178;24.622;2023-03-14T04:15:03;99969.00;;;0.28;100.00
12203;BME280;6164;42.178;24.622;2023-03-14T04:17:30;99968.63;;;0.34;100.00
12203;BME280;6164;42.178;24.622;2023-03-14T04:19:56;99966.28;;;0.43;100.00
12203;BME280;6164;42.178;24.622;2023-03-14T04:22:23;99953.47;;;0.54;100.00
12203;BME280;6164;42.178;24.622;2023-03-14T04:24:49;99963.66;;;0.57;100.00
12203;BME280;6164;42.178;24.622;2023-03-14T04:27:17;99966.72;;;0.64;100.00
12203;BME280;6164;42.178;24.622;2023-03-14T04:29:43;99957.88;;;0.66;100.00
12203;BME280;6164;42.178;24.622;2023-03-14T04:32:10;99959.44;;;0.69;98.38
12203;BME280;6164;42.178;24.622;2023-03-14T04:34:36;99950.16;;;0.65;96.87
12203;BME280;6164;42.178;24.622;2023-03-14T04:37:03;99946.75;;;0.64;96.32
12203;BME280;6164;42.178;24.622;2023-03-14T04:39:29;99947.03;;;0.60;96.25
12203;BME280;6164;42.178;24.622;2023-03-14T04:41:56;99948.41;;;0.65;96.12
12203;BME280;6164;42.178;24.622;2023-03-14T04:44:24;99953.41;;;0.68;95.71
12203;BME280;6164;42.178;24.622;2023-03-14T04:46:50;99955.06;;;0.69;96.09
12203;BME280;6164;42.178;24.622;2023-03-14T04:49:17;99962.06;;;0.69;96.67
12203;BME280;6164;42.178;24.622;2023-03-14T04:51:43;99969.00;;;0.68;97.01
12203;BME280;6164;42.178;24.622;2023-03-14T04:54:10;99970.97;;;0.65;97.92
12203;BME280;6164;42.178;24.622;2023-03-14T04:56:37;99974.94;;;0.70;97.42
12203;BME280;6164;42.178;24.622;2023-03-14T04:59:04;99974.66;;;0.75;97.34
12203;BME280;6164;42.178;24.622;2023-03-14T05:01:32;99977.13;;;0.76;97.31
12203;BME280;6164;42.178;24.622;2023-03-14T05:03:58;99987.16;;;0.82;97.53
12203;BME280;6164;42.178;24.622;2023-03-14T05:06:25;99980.28;;;0.81;98.00
12203;BME280;6164;42.178;24.622;2023-03-14T05:08:51;99984.03;;;0.77;97.76
12203;BME280;6164;42.178;24.622;2023-03-14T05:11:18;99989.03;;;0.66;97.60
12203;BME280;6164;42.178;24.622;2023-03-14T05:13:44;99983.59;;;0.57;98.31
12203;BME280;6164;42.178;24.622;2023-03-14T05:16:11;99985.78;;;0.36;98.74
12203;BME280;6164;42.178;24.622;2023-03-14T05:18:39;99985.13;;;0.33;99.03
12203;BME280;6164;42.178;24.622;2023-03-14T05:21:05;99987.28;;;0.26;99.57
12203;BME280;6164;42.178;24.622;2023-03-14T05:23:32;99988.47;;;0.21;99.36
12203;BME280;6164;42.178;24.622;2023-03-14T05:25:58;99991.91;;;0.21;98.62
12203;BME280;6164;42.178;24.622;2023-03-14T05:28:25;99999.97;;;0.17;98.83
12203;BME280;6164;42.178;24.622;2023-03-14T05:30:51;99998.00;;;0.20;97.96
12203;BME280;6164;42.178;24.622;2023-03-14T05:33:18;100001.91;;;0.27;97.24
12203;BME280;6164;42.178;24.622;2023-03-14T05:35:46;99995.31;;;0.36;96.10
12203;BME280;6164;42.178;24.622;2023-03-14T05:38:12;99986.69;;;0.35;96.40
12203;BME280;6164;42.178;24.622;2023-03-14T05:40:39;99993.44;;;0.52;96.42
12203;BME280;6164;42.178;24.622;2023-03-14T05:43:05;99985.91;;;0.61;96.17
12203;BME280;6164;42.178;24.622;2023-03-14T05:45:33;99990.53;;;0.70;96.45
12203;BME280;6164;42.178;24.622;2023-03-14T05:48:00;99985.47;;;0.81;96.24
12203;BME280;6164;42.178;24.622;2023-03-14T05:50:26;99988.81;;;0.83;96.52
12203;BME280;6164;42.178;24.622;2023-03-14T05:52:54;99990.22;;;0.89;96.75
12203;BME280;6164;42.178;24.622;2023-03-14T05:55:21;99993.84;;;0.99;97.01
12203;BME280;6164;42.178;24.622;2023-03-14T05:57:47;99993.69;;;1.02;97.25
12203;BME280;6164;42.178;24.622;2023-03-14T06:00:14;99992.94;;;1.00;97.37
12203;BME280;6164;42.178;24.622;2023-03-14T06:02:40;99984.00;;;1.04;98.78
12203;BME280;6164;42.178;24.622;2023-03-14T06:05:07;99987.88;;;1.11;98.94
12203;BME280;6164;42.178;24.622;2023-03-14T06:07:34;99989.38;;;1.27;99.12
12203;BME280;6164;42.178;24.622;2023-03-14T06:10:02;99985.66;;;1.44;98.76
12203;BME280;6164;42.178;24.622;2023-03-14T06:12:28;99983.59;;;1.62;98.89
12203;BME280;6164;42.178;24.622;2023-03-14T06:14:55;99983.31;;;1.79;97.19
12203;BME280;6164;42.178;24.622;2023-03-14T06:17:21;99982.28;;;1.94;95.96
12203;BME280;6164;42.178;24.622;2023-03-14T06:19:48;99979.75;;;2.05;93.24
12203;BME280;6164;42.178;24.622;2023-03-14T06:22:14;99979.78;;;2.17;92.71
12203;BME280;6164;42.178;24.622;2023-03-14T06:24:41;99968.47;;;2.29;92.09
12203;BME280;6164;42.178;24.622;2023-03-14T06:27:09;99967.75;;;2.40;91.10
12203;BME280;6164;42.178;24.622;2023-03-14T06:29:35;99967.47;;;2.55;90.59
12203;BME280;6164;42.178;24.622;2023-03-14T06:32:02;99971.72;;;2.69;89.67
12203;BME280;6164;42.178;24.622;2023-03-14T06:34:29;99973.09;;;2.86;89.02
12203;BME280;6164;42.178;24.622;2023-03-14T06:36:56;99969.63;;;2.98;88.40
12203;BME280;6164;42.178;24.622;2023-03-14T06:39:22;99974.78;;;3.10;88.26
12203;BME280;6164;42.178;24.622;2023-03-14T06:41:49;99970.09;;;3.26;87.79
12203;BME280;6164;42.178;24.622;2023-03-14T06:44:16;99976.78;;;3.41;87.84
12203;BME280;6164;42.178;24.622;2023-03-14T06:46:43;99977.63;;;3.42;85.92
12203;BME280;6164;42.178;24.622;2023-03-14T06:49:09;99975.16;;;3.51;84.60
12203;BME280;6164;42.178;24.622;2023-03-14T06:51:36;99967.81;;;3.56;84.26
12203;BME280;6164;42.178;24.622;2023-03-14T06:54:02;99969.38;;;3.70;83.07
12203;BME280;6164;42.178;24.622;2023-03-14T06:56:29;99970.97;;;3.83;83.72
12203;BME280;6164;42.178;24.622;2023-03-14T06:58:55;99959.78;;;3.92;84.29
12203;BME280;6164;42.178;24.622;2023-03-14T07:01:24;99970.16;;;4.05;84.50
12203;BME280;6164;42.178;24.622;2023-03-14T07:03:54;99966.25;;;4.22;83.70
12203;BME280;6164;42.178;24.622;2023-03-14T07:06:20;99960.63;;;4.37;82.21
12203;BME280;6164;42.178;24.622;2023-03-14T07:08:47;99962.16;;;4.51;82.08
12203;BME280;6164;42.178;24.622;2023-03-14T07:11:14;99957.75;;;4.62;80.86
12203;BME280;6164;42.178;24.622;2023-03-14T07:13:40;99953.19;;;4.75;79.41
12203;BME280;6164;42.178;24.622;2023-03-14T07:16:08;99947.69;;;4.89;79.19
12203;BME280;6164;42.178;24.622;2023-03-14T07:18:36;99940.94;;;5.07;77.40
12203;BME280;6164;42.178;24.622;2023-03-14T07:21:03;99939.25;;;5.17;76.24
12203;BME280;6164;42.178;24.622;2023-03-14T07:23:30;99941.25;;;5.25;75.90
12203;BME280;6164;42.178;24.622;2023-03-14T07:25:56;99951.41;;;5.39;75.77
12203;BME280;6164;42.178;24.622;2023-03-14T07:28:23;99939.22;;;5.49;75.08
12203;BME280;6164;42.178;24.622;2023-03-14T07:30:49;99945.13;;;5.72;74.89
12203;BME280;6164;42.178;24.622;2023-03-14T07:33:16;99953.28;;;5.89;71.65
12203;BME280;6164;42.178;24.622;2023-03-14T07:35:44;99961.34;;;6.07;70.40
12203;BME280;6164;42.178;24.622;2023-03-14T07:38:13;99958.94;;;6.24;71.27
12203;BME280;6164;42.178;24.622;2023-03-14T07:40:40;99965.25;;;6.42;69.93
12203;BME280;6164;42.178;24.622;2023-03-14T07:43:06;99963.66;;;6.60;68.65
12203;BME280;6164;42.178;24.622;2023-03-14T07:45:33;99985.34;;;6.72;67.14
12203;BME280;6164;42.178;24.622;2023-03-14T07:47:59;99980.41;;;6.88;66.05
12203;BME280;6164;42.178;24.622;2023-03-14T07:50:27;99981.25;;;7.08;66.30
12203;BME280;6164;42.178;24.622;2023-03-14T07:52:55;99989.72;;;7.21;64.73
12203;BME280;6164;42.178;24.622;2023-03-14T07:55:21;100002.31;;;7.36;64.20
12203;BME280;6164;42.178;24.622;2023-03-14T07:57:48;99994.81;;;7.51;64.21
12203;BME280;6164;42.178;24.622;2023-03-14T08:00:15;100004.91;;;7.65;63.02
12203;BME280;6164;42.178;24.622;2023-03-14T08:02:41;100013.75;;;7.73;62.65
12203;BME280;6164;42.178;24.622;2023-03-14T08:05:08;100005.84;;;7.83;62.61
12203;BME280;6164;42.178;24.622;2023-03-14T08:07:35;100022.69;;;7.99;61.47
12203;BME280;6164;42.178;24.622;2023-03-14T08:10:04;100031.25;;;8.11;60.33
12203;BME280;6164;42.178;24.622;2023-03-14T08:12:30;100037.06;;;8.24;60.65
12203;BME280;6164;42.178;24.622;2023-03-14T08:14:57;100019.72;;;8.41;61.22
12203;BME280;6164;42.178;24.622;2023-03-14T08:17:24;100033.13;;;8.47;60.00
12203;BME280;6164;42.178;24.622;2023-03-14T08:19:51;100047.47;;;8.62;58.95
12203;BME280;6164;42.178;24.622;2023-03-14T08:22:17;100060.44;;;8.73;58.04
12203;BME280;6164;42.178;24.622;2023-03-14T08:24:44;100081.19;;;8.86;56.84
12203;BME280;6164;42.178;24.622;2023-03-14T08:27:12;100095.84;;;8.88;55.59
12203;BME280;6164;42.178;24.622;2023-03-14T08:29:39;100086.25;;;8.97;56.11
12203;BME280;6164;42.178;24.622;2023-03-14T08:32:07;100072.56;;;9.11;56.67
12203;BME280;6164;42.178;24.622;2023-03-14T08:34:33;100084.13;;;9.27;55.94
12203;BME280;6164;42.178;24.622;2023-03-14T08:36:59;100086.25;;;9.42;55.34
12203;BME280;6164;42.178;24.622;2023-03-14T08:39:26;100091.47;;;9.51;55.12
12203;BME280;6164;42.178;24.622;2023-03-14T08:41:53;100090.56;;;9.60;54.73
12203;BME280;6164;42.178;24.622;2023-03-14T08:44:20;100078.44;;;9.67;55.37
12203;BME280;6164;42.178;24.622;2023-03-14T08:46:47;100094.03;;;9.78;54.68
12203;BME280;6164;42.178;24.622;2023-03-14T08:49:13;100111.06;;;9.84;53.30
12203;BME280;6164;42.178;24.622;2023-03-14T08:51:40;100090.03;;;9.92;54.05
12203;BME280;6164;42.178;24.622;2023-03-14T08:54:09;100116.63;;;9.98;52.50
12203;BME280;6164;42.178;24.622;2023-03-14T08:56:36;100099.59;;;9.93;53.37
12203;BME280;6164;42.178;24.622;2023-03-14T08:59:03;100099.69;;;10.01;53.13
12203;BME280;6164;42.178;24.622;2023-03-14T09:01:31;100094.88;;;10.14;52.55
12203;BME280;6164;42.178;24.622;2023-03-14T09:03:58;100095.28;;;10.27;53.26
12203;BME280;6164;42.178;24.622;2023-03-14T09:06:24;100100.63;;;10.35;51.92
12203;BME280;6164;42.178;24.622;2023-03-14T09:08:51;100108.22;;;10.38;51.88
12203;BME280;6164;42.178;24.622;2023-03-14T09:11:17;100110.94;;;10.46;51.65
12203;BME280;6164;42.178;24.622;2023-03-14T09:13:44;100102.88;;;10.47;51.37
12203;BME280;6164;42.178;24.622;2023-03-14T09:16:11;100089.09;;;10.61;52.06
12203;BME280;6164;42.178;24.622;2023-03-14T09:18:39;100098.56;;;10.72;51.15
12203;BME280;6164;42.178;24.622;2023-03-14T09:21:05;100112.63;;;10.81;50.45
12203;BME280;6164;42.178;24.622;2023-03-14T09:23:32;100114.56;;;10.71;49.98
12203;BME280;6164;42.178;24.622;2023-03-14T09:25:59;100116.41;;;10.78;51.06
12203;BME280;6164;42.178;24.622;2023-03-14T09:28:26;100105.16;;;10.76;50.19
12203;BME280;6164;42.178;24.622;2023-03-14T09:30:52;100114.56;;;10.71;49.99
12203;BME280;6164;42.178;24.622;2023-03-14T09:33:19;100119.16;;;10.69;49.87
12203;BME280;6164;42.178;24.622;2023-03-14T09:35:47;100102.06;;;10.81;50.96
12203;BME280;6164;42.178;24.622;2023-03-14T09:38:13;100104.13;;;10.95;49.67
12203;BME280;6164;42.178;24.622;2023-03-14T09:40:40;100119.47;;;10.99;49.19
12203;BME280;6164;42.178;24.622;2023-03-14T09:43:08;100119.22;;;11.10;49.52
12203;BME280;6164;42.178;24.622;2023-03-14T09:45:36;100100.97;;;11.33;49.93
12203;BME280;6164;42.178;24.622;2023-03-14T09:48:05;100119.47;;;11.33;48.58
12203;BME280;6164;42.178;24.622;2023-03-14T09:50:33;100106.63;;;11.46;49.82
12203;BME280;6164;42.178;24.622;2023-03-14T09:53:04;100102.19;;;11.62;49.29
12203;BME280;6164;42.178;24.622;2023-03-14T09:55:32;100131.00;;;11.73;48.05
12203;BME280;6164;42.178;24.622;2023-03-14T09:58:00;100159.25;;;11.65;47.17
12203;BME280;6164;42.178;24.622;2023-03-14T10:00:28;100166.03;;;11.67;47.28
12203;BME280;6164;42.178;24.622;2023-03-14T10:02:57;100144.06;;;11.75;47.98
12203;BME280;6164;42.178;24.622;2023-03-14T10:05:27;100161.06;;;11.64;46.54
12203;BME280;6164;42.178;24.622;2023-03-14T10:07:54;100161.22;;;11.63;46.37
12203;BME280;6164;42.178;24.622;2023-03-14T10:10:23;100137.78;;;11.76;47.01
12203;BME280;6164;42.178;24.622;2023-03-14T10:12:54;100113.34;;;11.98;48.33
12203;BME280;6164;42.178;24.622;2023-03-14T10:15:24;100135.34;;;12.15;46.88
12203;BME280;6164;42.178;24.622;2023-03-14T10:17:50;100134.88;;;12.27;46.36
12203;BME280;6164;42.178;24.622;2023-03-14T10:20:36;100146.75;;;12.39;45.62
12203;BME280;6164;42.178;24.622;2023-03-14T10:23:03;100183.81;;;12.31;44.59
12203;BME280;6164;42.178;24.622;2023-03-14T10:25:35;100153.56;;;12.42;46.13
12203;BME280;6164;42.178;24.622;2023-03-14T10:28:02;100149.22;;;12.65;46.17
12203;BME280;6164;42.178;24.622;2023-03-14T10:30:30;100144.53;;;12.91;45.71
12203;BME280;6164;42.178;24.622;2023-03-14T10:33:01;100184.28;;;13.07;43.70
12203;BME280;6164;42.178;24.622;2023-03-14T10:35:36;100185.88;;;13.24;44.22
12203;BME280;6164;42.178;24.622;2023-03-14T10:38:03;100187.50;;;13.33;43.80
12203;BME280;6164;42.178;24.622;2023-03-14T10:40:30;100181.50;;;13.47;44.13
12203;BME280;6164;42.178;24.622;2023-03-14T10:42:58;100200.16;;;13.62;42.87
12203;BME280;6164;42.178;24.622;2023-03-14T10:45:28;100175.53;;;13.76;44.46
12203;BME280;6164;42.178;24.622;2023-03-14T10:47:58;100186.88;;;13.62;42.85
12203;BME280;6164;42.178;24.622;2023-03-14T10:50:26;100170.22;;;13.76;43.79
12203;BME280;6164;42.178;24.622;2023-03-14T10:52:53;100195.34;;;13.65;42.63
12203;BME280;6164;42.178;24.622;2023-03-14T10:55:20;100217.25;;;13.51;41.69
12203;BME280;6164;42.178;24.622;2023-03-14T10:57:47;100191.03;;;13.56;43.67
12203;BME280;6164;42.178;24.622;2023-03-14T11:00:16;100176.53;;;13.75;43.47
12203;BME280;6164;42.178;24.622;2023-03-14T11:02:47;100177.31;;;13.83;43.66
12203;BME280;6164;42.178;24.622;2023-03-14T11:05:18;100165.94;;;13.97;43.33
12203;BME280;6164;42.178;24.622;2023-03-14T11:07:47;100181.13;;;14.11;41.85
12203;BME280;6164;42.178;24.622;2023-03-14T11:10:18;100178.88;;;14.23;42.20
12203;BME280;6164;42.178;24.622;2023-03-14T11:12:51;100169.78;;;14.40;42.34
12203;BME280;6164;42.178;24.622;2023-03-14T11:15:25;100201.59;;;14.48;40.17
12203;BME280;6164;42.178;24.622;2023-03-14T11:17:59;100206.22;;;14.54;40.49
12203;BME280;6164;42.178;24.622;2023-03-14T11:20:31;100220.91;;;14.65;39.77
12203;BME280;6164;42.178;24.622;2023-03-14T11:22:59;100197.84;;;14.80;41.66
12203;BME280;6164;42.178;24.622;2023-03-14T11:25:29;100181.19;;;14.86;41.44
12203;BME280;6164;42.178;24.622;2023-03-14T11:28:00;100212.13;;;14.64;39.71
12203;BME280;6164;42.178;24.622;2023-03-14T11:30:34;100210.81;;;14.60;39.94
12203;BME280;6164;42.178;24.622;2023-03-14T11:33:03;100206.16;;;14.62;39.83
12203;BME280;6164;42.178;24.622;2023-03-14T11:35:34;100202.72;;;14.53;40.52
12203;BME280;6164;42.178;24.622;2023-03-14T11:38:05;100207.56;;;14.50;40.04
12203;BME280;6164;42.178;24.622;2023-03-14T11:40:36;100197.50;;;14.45;40.47
12203;BME280;6164;42.178;24.622;2023-03-14T11:43:06;100187.19;;;14.65;40.48
12203;BME280;6164;42.178;24.622;2023-03-14T11:45:41;100184.56;;;14.80;39.98
12203;BME280;6164;42.178;24.622;2023-03-14T11:48:14;100187.22;;;14.94;39.19
12203;BME280;6164;42.178;24.622;2023-03-14T11:50:42;100164.41;;;15.14;40.26
12203;BME280;6164;42.178;24.622;2023-03-14T11:53:11;100153.88;;;15.21;40.21
12203;BME280;6164;42.178;24.622;2023-03-14T11:55:43;100146.81;;;15.42;39.97
12203;BME280;6164;42.178;24.622;2023-03-14T11:58:12;100152.81;;;15.65;39.80
12203;BME280;6164;42.178;24.622;2023-03-14T12:00:42;100160.78;;;15.80;39.23
12203;BME280;6164;42.178;24.622;2023-03-14T12:03:11;100171.81;;;15.98;37.87
12203;BME280;6164;42.178;24.622;2023-03-14T12:05:50;100182.19;;;16.08;38.01
12203;BME280;6164;42.178;24.622;2023-03-14T12:08:22;100172.16;;;16.10;37.82
12203;BME280;6164;42.178;24.622;2023-03-14T12:10:52;100176.16;;;16.20;37.91
12203;BME280;6164;42.178;24.622;2023-03-14T12:13:20;100185.13;;;16.34;37.43
12203;BME280;6164;42.178;24.622;2023-03-14T12:15:55;100186.56;;;16.36;37.70
12203;BME280;6164;42.178;24.622;2023-03-14T12:18:26;100183.25;;;16.49;37.81
12203;BME280;6164;42.178;24.622;2023-03-14T12:20:54;100191.97;;;16.64;37.49
12203;BME280;6164;42.178;24.622;2023-03-14T12:23:22;100225.75;;;16.57;35.89
12203;BME280;6164;42.178;24.622;2023-03-14T12:26:13;100212.63;;;16.83;36.75
12203;BME280;6164;42.178;24.622;2023-03-14T12:28:41;100227.75;;;17.03;36.40
12203;BME280;6164;42.178;24.622;2023-03-14T12:34:01;100209.09;;;17.03;36.93
12203;BME280;6164;42.178;24.622;2023-03-14T12:39:17;100230.75;;;17.22;35.98
12203;BME280;6164;42.178;24.622;2023-03-14T12:41:48;100249.81;;;17.19;35.76
12203;BME280;6164;42.178;24.622;2023-03-14T12:46:58;100240.75;;;17.41;35.61
12203;BME280;6164;42.178;24.622;2023-03-14T12:49:29;100255.16;;;17.46;35.57
12203;BME280;6164;42.178;24.622;2023-03-14T12:51:58;100232.88;;;17.60;36.39
12203;BME280;6164;42.178;24.622;2023-03-14T12:54:27;100251.38;;;17.62;35.32
12203;BME280;6164;42.178;24.622;2023-03-14T12:57:00;100248.47;;;17.57;36.22
12203;BME280;6164;42.178;24.622;2023-03-14T12:59:34;100244.59;;;17.59;36.29
12203;BME280;6164;42.178;24.622;2023-03-14T13:02:02;100237.00;;;17.69;36.30
12203;BME280;6164;42.178;24.622;2023-03-14T13:04:44;100255.94;;;17.13;35.74
12203;BME280;6164;42.178;24.622;2023-03-14T13:07:11;100238.41;;;17.25;36.91
12203;BME280;6164;42.178;24.622;2023-03-14T13:12:23;100231.25;;;17.59;35.87
12203;BME280;6164;42.178;24.622;2023-03-14T13:14:52;100233.50;;;17.62;35.83